sensor_id;sensor_type;location;lat;lon;timestamp;pressure;altitude;pressure_sealevel;temperature;humidity
10097;BME280;5087;42.662;23.466;2022-07-10T00:00:03;95274.44;;;14.88;100.00
10097;BME280;5087;42.662;23.466;2022-07-10T00:02:38;95282.09;;;14.83;100.00
10097;BME280;5087;42.662;23.466;2022-07-10T00:05:07;95286.25;;;14.93;100.00
10097;BME280;5087;42.662;23.466;2022-07-10T00:07:34;95285.28;;;14.85;100.00
10097;BME280;5087;42.662;23.466;2022-07-10T00:10:07;95277.19;;;14.88;100.00
10097;BME280;5087;42.662;23.466;2022-07-10T00:12:35;95274.25;;;14.81;100.00
10097;BME280;5087;42.662;23.466;2022-07-10T00:15:05;95279.03;;;14.72;100.00
10097;BME280;5087;42.662;23.466;2022-07-10T00:17:33;95271.91;;;14.96;100.00
10097;BME280;5087;42.662;23.466;2022-07-10T00:20:03;95248.81;;;14.93;100.00
10097;BME280;5087;42.662;23.466;2022-07-10T00:22:33;95274.59;;;15.08;100.00
10097;BME280;5087;42.662;23.466;2022-07-10T00:25:00;95233.00;;;14.86;100.00
10097;BME280;5087;42.662;23.466;2022-07-10T00:27:30;95238.47;;;14.86;100.00
10097;BME280;5087;42.662;23.466;2022-07-10T00:29:58;95237.91;;;14.81;100.00
10097;BME280;5087;42.662;23.466;2022-07-10T00:32:31;95261.63;;;15.05;100.00
10097;BME280;5087;42.662;23.466;2022-07-10T00:34:58;95223.94;;;14.70;100.00
10097;BME280;5087;42.662;23.466;2022-07-10T00:37:28;95233.28;;;14.69;100.00
10097;BME280;5087;42.662;23.466;2022-07-10T00:39:55;95247.41;;;14.71;100.00
10097;BME280;5087;42.662;23.466;2022-07-10T00:42:26;95230.31;;;14.62;100.00
10097;BME280;5087;42.662;23.466;2022-07-10T00:44:53;95243.28;;;14.65;100.00
10097;BME280;5087;42.662;23.466;2022-07-10T00:47:22;95246.72;;;14.74;100.00
10097;BME280;5087;42.662;23.466;2022-07-10T00:49:51;95222.25;;;14.53;100.00
10097;BME280;5087;42.662;23.466;2022-07-10T00:52:19;95215.47;;;14.34;100.00
10097;BME280;5087;42.662;23.466;2022-07-10T00:54:48;95233.09;;;14.49;100.00
10097;BME280;5087;42.662;23.466;2022-07-10T00:57:18;95235.50;;;14.38;100.00
10097;BME280;5087;42.662;23.466;2022-07-10T00:59:45;95192.66;;;14.02;100.00
10097;BME280;5087;42.662;23.466;2022-07-10T01:02:15;95248.13;;;14.43;100.00
10097;BME280;5087;42.662;23.466;2022-07-10T01:04:43;95251.88;;;14.26;100.00
10097;BME280;5087;42.662;23.466;2022-07-10T01:07:14;95193.38;;;13.86;100.00
10097;BME280;5087;42.662;23.466;2022-07-10T01:09:42;95244.97;;;14.16;100.00
10097;BME280;5087;42.662;23.466;2022-07-10T01:12:11;95234.38;;;14.02;100.00
10097;BME280;5087;42.662;23.466;2022-07-10T01:14:41;95228.81;;;13.99;100.00
10097;BME280;5087;42.662;23.466;2022-07-10T01:17:08;95238.50;;;14.08;100.00
10097;BME280;5087;42.662;23.466;2022-07-10T01:19:36;95205.88;;;13.75;100.00
10097;BME280;5087;42.662;23.466;2022-07-10T01:22:05;95237.50;;;13.88;100.00
10097;BME280;5087;42.662;23.466;2022-07-10T01:24:33;95200.31;;;13.59;100.00
10097;BME280;5087;42.662;23.466;2022-07-10T01:27:00;95237.69;;;13.83;100.00
10097;BME280;5087;42.662;23.466;2022-07-10T01:29:28;95213.97;;;13.71;100.00
10097;BME280;5087;42.662;23.466;2022-07-10T01:31:56;95191.22;;;13.67;100.00
10097;BME280;5087;42.662;23.466;2022-07-10T01:34:25;95203.16;;;13.75;100.00
10097;BME280;5087;42.662;23.466;2022-07-10T01:36:53;95219.06;;;13.85;100.00
10097;BME280;5087;42.662;23.466;2022-07-10T01:39:22;95179.97;;;13.56;100.00
10097;BME280;5087;42.662;23.466;2022-07-10T01:41:54;95212.00;;;13.84;100.00
10097;BME280;5087;42.662;23.466;2022-07-10T01:44:21;95214.53;;;13.89;100.00
10097;BME280;5087;42.662;23.466;2022-07-10T01:46:53;95217.13;;;13.98;100.00
10097;BME280;5087;42.662;23.466;2022-07-10T01:49:21;95178.00;;;13.82;100.00
10097;BME280;5087;42.662;23.466;2022-07-10T01:51:51;95201.31;;;14.04;100.00
10097;BME280;5087;42.662;23.466;2022-07-10T01:54:19;95175.28;;;13.82;100.00
10097;BME280;5087;42.662;23.466;2022-07-10T01:56:48;95226.22;;;14.15;100.00
10097;BME280;5087;42.662;23.466;2022-07-10T01:59:19;95219.94;;;14.14;100.00
10097;BME280;5087;42.662;23.466;2022-07-10T02:01:47;95189.06;;;13.98;100.00
10097;BME280;5087;42.662;23.466;2022-07-10T02:04:17;95169.63;;;13.87;100.00
10097;BME280;5087;42.662;23.466;2022-07-10T02:07:11;95227.91;;;14.19;100.00
10097;BME280;5087;42.662;23.466;2022-07-10T02:09:42;95216.09;;;13.53;100.00
10097;BME280;5087;42.662;23.466;2022-07-10T02:12:13;95170.88;;;12.94;100.00
10097;BME280;5087;42.662;23.466;2022-07-10T02:14:42;95221.97;;;12.97;100.00
10097;BME280;5087;42.662;23.466;2022-07-10T02:17:10;95215.16;;;13.03;100.00
10097;BME280;5087;42.662;23.466;2022-07-10T02:19:37;95207.34;;;13.02;100.00
10097;BME280;5087;42.662;23.466;2022-07-10T02:22:04;95174.03;;;12.83;100.00
10097;BME280;5087;42.662;23.466;2022-07-10T02:24:38;95207.44;;;13.05;100.00
10097;BME280;5087;42.662;23.466;2022-07-10T02:27:06;95208.94;;;13.15;100.00
10097;BME280;5087;42.662;23.466;2022-07-10T02:29:39;95202.56;;;12.98;100.00
10097;BME280;5087;42.662;23.466;2022-07-10T02:32:08;95183.66;;;12.81;100.00
10097;BME280;5087;42.662;23.466;2022-07-10T02:34:35;95208.66;;;12.83;100.00
10097;BME280;5087;42.662;23.466;2022-07-10T02:37:02;95210.66;;;12.74;100.00
10097;BME280;5087;42.662;23.466;2022-07-10T02:39:30;95226.91;;;12.61;100.00
10097;BME280;5087;42.662;23.466;2022-07-10T02:41:57;95229.59;;;12.49;100.00
10097;BME280;5087;42.662;23.466;2022-07-10T02:44:25;95227.25;;;12.39;100.00
10097;BME280;5087;42.662;23.466;2022-07-10T02:46:53;95231.44;;;12.36;100.00
10097;BME280;5087;42.662;23.466;2022-07-10T02:49:21;95233.13;;;12.28;100.00
10097;BME280;5087;42.662;23.466;2022-07-10T02:51:48;95227.50;;;12.03;100.00
10097;BME280;5087;42.662;23.466;2022-07-10T02:54:16;95229.97;;;11.87;100.00
10097;BME280;5087;42.662;23.466;2022-07-10T02:56:43;95235.25;;;11.84;100.00
10097;BME280;5087;42.662;23.466;2022-07-10T02:59:10;95232.25;;;11.77;100.00
10097;BME280;5087;42.662;23.466;2022-07-10T03:01:37;95238.03;;;11.75;100.00
10097;BME280;5087;42.662;23.466;2022-07-10T03:04:06;95200.91;;;11.49;100.00
10097;BME280;5087;42.662;23.466;2022-07-10T03:06:33;95244.34;;;11.97;100.00
10097;BME280;5087;42.662;23.466;2022-07-10T03:09:00;95237.22;;;12.13;100.00
10097;BME280;5087;42.662;23.466;2022-07-10T03:11:28;95228.56;;;12.11;100.00
10097;BME280;5087;42.662;23.466;2022-07-10T03:13:55;95220.22;;;12.38;100.00
10097;BME280;5087;42.662;23.466;2022-07-10T03:16:22;95237.38;;;12.59;100.00
10097;BME280;5087;42.662;23.466;2022-07-10T03:18:49;95225.94;;;12.66;100.00
10097;BME280;5087;42.662;23.466;2022-07-10T03:21:17;95238.16;;;12.81;100.00
10097;BME280;5087;42.662;23.466;2022-07-10T03:23:45;95232.00;;;12.84;100.00
10097;BME280;5087;42.662;23.466;2022-07-10T03:26:12;95222.31;;;12.95;100.00
10097;BME280;5087;42.662;23.466;2022-07-10T03:28:39;95240.88;;;13.27;100.00
10097;BME280;5087;42.662;23.466;2022-07-10T03:31:06;95244.22;;;13.33;100.00
10097;BME280;5087;42.662;23.466;2022-07-10T03:33:33;95237.91;;;13.53;100.00
10097;BME280;5087;42.662;23.466;2022-07-10T03:36:01;95233.25;;;13.66;100.00
10097;BME280;5087;42.662;23.466;2022-07-10T03:38:30;95224.25;;;13.53;100.00
10097;BME280;5087;42.662;23.466;2022-07-10T03:40:57;95220.75;;;13.65;100.00
10097;BME280;5087;42.662;23.466;2022-07-10T03:43:24;95229.97;;;13.85;100.00
10097;BME280;5087;42.662;23.466;2022-07-10T03:45:51;95233.41;;;13.82;100.00
10097;BME280;5087;42.662;23.466;2022-07-10T03:48:18;95224.06;;;13.83;100.00
10097;BME280;5087;42.662;23.466;2022-07-10T03:50:49;95227.09;;;14.19;100.00
10097;BME280;5087;42.662;23.466;2022-07-10T03:53:16;95231.22;;;14.25;100.00
10097;BME280;5087;42.662;23.466;2022-07-10T03:55:45;95224.84;;;14.21;100.00
10097;BME280;5087;42.662;23.466;2022-07-10T03:58:13;95222.41;;;14.44;100.00
10097;BME280;5087;42.662;23.466;2022-07-10T04:00:39;95217.09;;;14.23;100.00
10097;BME280;5087;42.662;23.466;2022-07-10T04:03:08;95202.63;;;14.35;100.00
10097;BME280;5087;42.662;23.466;2022-07-10T04:05:35;95218.03;;;14.55;100.00
10097;BME280;5087;42.662;23.466;2022-07-10T04:08:03;95220.06;;;14.71;100.00
10097;BME280;5087;42.662;23.466;2022-07-10T04:10:31;95216.66;;;14.62;100.00
10097;BME280;5087;42.662;23.466;2022-07-10T04:13:00;95208.75;;;14.85;100.00
10097;BME280;5087;42.662;23.466;2022-07-10T04:15:27;95208.34;;;14.99;100.00
10097;BME280;5087;42.662;23.466;2022-07-10T04:17:55;95206.72;;;15.26;100.00
10097;BME280;5087;42.662;23.466;2022-07-10T04:20:22;95195.84;;;15.14;100.00
10097;BME280;5087;42.662;23.466;2022-07-10T04:22:50;95207.16;;;15.12;100.00
10097;BME280;5087;42.662;23.466;2022-07-10T04:25:17;95198.75;;;15.05;100.00
10097;BME280;5087;42.662;23.466;2022-07-10T04:27:47;95197.81;;;15.13;100.00
10097;BME280;5087;42.662;23.466;2022-07-10T04:30:16;95173.34;;;15.04;100.00
10097;BME280;5087;42.662;23.466;2022-07-10T04:32:43;95194.81;;;15.18;100.00
10097;BME280;5087;42.662;23.466;2022-07-10T04:35:10;95194.84;;;15.06;100.00
10097;BME280;5087;42.662;23.466;2022-07-10T04:37:37;95198.41;;;15.23;100.00
10097;BME280;5087;42.662;23.466;2022-07-10T04:40:05;95202.31;;;15.38;100.00
10097;BME280;5087;42.662;23.466;2022-07-10T04:42:33;95194.25;;;15.29;100.00
10097;BME280;5087;42.662;23.466;2022-07-10T04:45:00;95186.50;;;15.31;100.00
10097;BME280;5087;42.662;23.466;2022-07-10T04:47:29;95193.22;;;15.81;100.00
10097;BME280;5087;42.662;23.466;2022-07-10T04:49:56;95191.03;;;15.87;100.00
10097;BME280;5087;42.662;23.466;2022-07-10T04:52:23;95187.03;;;16.36;100.00
10097;BME280;5087;42.662;23.466;2022-07-10T04:54:50;95190.19;;;16.38;100.00
10097;BME280;5087;42.662;23.466;2022-07-10T04:57:17;95181.13;;;16.54;100.00
10097;BME280;5087;42.662;23.466;2022-07-10T04:59:44;95174.94;;;16.76;100.00
10097;BME280;5087;42.662;23.466;2022-07-10T05:02:14;95181.78;;;16.86;100.00
10097;BME280;5087;42.662;23.466;2022-07-10T05:04:43;95181.78;;;16.86;100.00
10097;BME280;5087;42.662;23.466;2022-07-10T05:07:10;95183.44;;;16.91;100.00
10097;BME280;5087;42.662;23.466;2022-07-10T05:09:37;95179.69;;;17.19;100.00
10097;BME280;5087;42.662;23.466;2022-07-10T05:12:05;95179.94;;;17.33;100.00
10097;BME280;5087;42.662;23.466;2022-07-10T05:14:32;95157.16;;;17.33;100.00
10097;BME280;5087;42.662;23.466;2022-07-10T05:16:59;95153.22;;;17.30;100.00
10097;BME280;5087;42.662;23.466;2022-07-10T05:19:26;95171.59;;;17.06;100.00
10097;BME280;5087;42.662;23.466;2022-07-10T05:21:56;95151.19;;;17.04;100.00
10097;BME280;5087;42.662;23.466;2022-07-10T05:24:23;95170.53;;;17.34;100.00
10097;BME280;5087;42.662;23.466;2022-07-10T05:26:50;95170.72;;;17.22;100.00
10097;BME280;5087;42.662;23.466;2022-07-10T05:29:17;95160.69;;;17.10;100.00
10097;BME280;5087;42.662;23.466;2022-07-10T05:31:44;95169.31;;;16.89;100.00
10097;BME280;5087;42.662;23.466;2022-07-10T05:34:12;95164.84;;;16.81;100.00
10097;BME280;5087;42.662;23.466;2022-07-10T05:36:39;95165.28;;;17.02;100.00
10097;BME280;5087;42.662;23.466;2022-07-10T05:39:08;95168.97;;;17.33;100.00
10097;BME280;5087;42.662;23.466;2022-07-10T05:41:35;95173.88;;;17.01;100.00
10097;BME280;5087;42.662;23.466;2022-07-10T05:44:02;95168.13;;;16.90;100.00
10097;BME280;5087;42.662;23.466;2022-07-10T05:46:29;95154.25;;;16.99;100.00
10097;BME280;5087;42.662;23.466;2022-07-10T05:48:57;95153.47;;;17.21;100.00
10097;BME280;5087;42.662;23.466;2022-07-10T05:51:24;95175.00;;;17.43;100.00
10097;BME280;5087;42.662;23.466;2022-07-10T05:53:51;95172.50;;;17.57;100.00
10097;BME280;5087;42.662;23.466;2022-07-10T05:56:19;95170.91;;;17.56;100.00
10097;BME280;5087;42.662;23.466;2022-07-10T05:58:46;95145.22;;;17.45;100.00
10097;BME280;5087;42.662;23.466;2022-07-10T06:01:15;95176.63;;;17.70;100.00
10097;BME280;5087;42.662;23.466;2022-07-10T06:03:42;95171.84;;;17.67;100.00
10097;BME280;5087;42.662;23.466;2022-07-10T06:06:10;95179.81;;;17.72;100.00
10097;BME280;5087;42.662;23.466;2022-07-10T06:08:40;95177.34;;;17.67;100.00
10097;BME280;5087;42.662;23.466;2022-07-10T06:11:08;95170.84;;;17.29;100.00
10097;BME280;5087;42.662;23.466;2022-07-10T06:13:37;95166.88;;;17.03;100.00
10097;BME280;5087;42.662;23.466;2022-07-10T06:16:05;95181.28;;;17.20;100.00
10097;BME280;5087;42.662;23.466;2022-07-10T06:18:32;95180.91;;;17.21;100.00
10097;BME280;5087;42.662;23.466;2022-07-10T06:20:59;95177.47;;;17.28;100.00
10097;BME280;5087;42.662;23.466;2022-07-10T06:23:26;95177.13;;;17.53;100.00
10097;BME280;5087;42.662;23.466;2022-07-10T06:25:54;95155.91;;;17.50;100.00
10097;BME280;5087;42.662;23.466;2022-07-10T06:28:21;95163.03;;;17.54;100.00
10097;BME280;5087;42.662;23.466;2022-07-10T06:30:49;95166.88;;;17.50;100.00
10097;BME280;5087;42.662;23.466;2022-07-10T06:33:17;95174.22;;;17.92;100.00
10097;BME280;5087;42.662;23.466;2022-07-10T06:35:44;95171.50;;;18.19;100.00
10097;BME280;5087;42.662;23.466;2022-07-10T06:38:11;95170.72;;;18.49;100.00
10097;BME280;5087;42.662;23.466;2022-07-10T06:40:38;95156.56;;;18.47;100.00
10097;BME280;5087;42.662;23.466;2022-07-10T06:43:05;95147.41;;;19.04;100.00
10097;BME280;5087;42.662;23.466;2022-07-10T06:45:32;95155.38;;;19.57;100.00
10097;BME280;5087;42.662;23.466;2022-07-10T06:48:01;95152.03;;;19.34;100.00
10097;BME280;5087;42.662;23.466;2022-07-10T06:50:28;95156.78;;;19.40;100.00
10097;BME280;5087;42.662;23.466;2022-07-10T06:52:57;95154.66;;;18.85;100.00
10097;BME280;5087;42.662;23.466;2022-07-10T06:55:25;95148.44;;;19.29;100.00
10097;BME280;5087;42.662;23.466;2022-07-10T06:57:52;95116.53;;;19.21;100.00
10097;BME280;5087;42.662;23.466;2022-07-10T07:00:20;95150.31;;;19.63;100.00
10097;BME280;5087;42.662;23.466;2022-07-10T07:02:47;95144.72;;;19.52;100.00
10097;BME280;5087;42.662;23.466;2022-07-10T07:05:16;95136.88;;;20.03;100.00
10097;BME280;5087;42.662;23.466;2022-07-10T07:07:43;95123.53;;;20.19;100.00
10097;BME280;5087;42.662;23.466;2022-07-10T07:10:11;95136.09;;;20.09;100.00
10097;BME280;5087;42.662;23.466;2022-07-10T07:12:38;95147.25;;;19.72;100.00
10097;BME280;5087;42.662;23.466;2022-07-10T07:15:07;95142.66;;;19.90;100.00
10097;BME280;5087;42.662;23.466;2022-07-10T07:17:39;95129.94;;;20.34;100.00
10097;BME280;5087;42.662;23.466;2022-07-10T07:20:25;95135.41;;;20.23;100.00
10097;BME280;5087;42.662;23.466;2022-07-10T07:23:10;95112.69;;;20.52;100.00
10097;BME280;5087;42.662;23.466;2022-07-10T07:25:37;95136.38;;;20.64;100.00
10097;BME280;5087;42.662;23.466;2022-07-10T07:28:08;95145.78;;;20.48;100.00
10097;BME280;5087;42.662;23.466;2022-07-10T07:30:35;95136.00;;;20.69;100.00
10097;BME280;5087;42.662;23.466;2022-07-10T07:33:03;95122.97;;;20.62;100.00
10097;BME280;5087;42.662;23.466;2022-07-10T07:35:31;95109.34;;;21.02;100.00
10097;BME280;5087;42.662;23.466;2022-07-10T07:38:00;95123.47;;;20.93;100.00
10097;BME280;5087;42.662;23.466;2022-07-10T07:40:28;95132.06;;;20.66;100.00
10097;BME280;5087;42.662;23.466;2022-07-10T07:42:55;95124.63;;;20.85;100.00
10097;BME280;5087;42.662;23.466;2022-07-10T07:45:23;95130.59;;;21.05;100.00
10097;BME280;5087;42.662;23.466;2022-07-10T07:47:51;95137.81;;;20.36;100.00
10097;BME280;5087;42.662;23.466;2022-07-10T07:50:20;95132.13;;;20.84;100.00
10097;BME280;5087;42.662;23.466;2022-07-10T07:52:49;95123.94;;;21.21;100.00
10097;BME280;5087;42.662;23.466;2022-07-10T07:55:17;95133.41;;;21.27;100.00
10097;BME280;5087;42.662;23.466;2022-07-10T07:57:46;95129.47;;;21.39;100.00
10097;BME280;5087;42.662;23.466;2022-07-10T08:00:15;95107.00;;;21.40;100.00
10097;BME280;5087;42.662;23.466;2022-07-10T08:02:43;95129.13;;;21.87;100.00
10097;BME280;5087;42.662;23.466;2022-07-10T08:05:11;95095.53;;;22.03;100.00
10097;BME280;5087;42.662;23.466;2022-07-10T08:07:39;95108.56;;;21.99;100.00
10097;BME280;5087;42.662;23.466;2022-07-10T08:10:10;95127.53;;;21.90;100.00
10097;BME280;5087;42.662;23.466;2022-07-10T08:12:37;95112.03;;;22.36;100.00
10097;BME280;5087;42.662;23.466;2022-07-10T08:15:07;95098.19;;;22.54;100.00
10097;BME280;5087;42.662;23.466;2022-07-10T08:17:35;95113.47;;;22.80;100.00
10097;BME280;5087;42.662;23.466;2022-07-10T08:20:02;95119.34;;;22.93;100.00
10097;BME280;5087;42.662;23.466;2022-07-10T08:22:30;95125.25;;;22.95;100.00
10097;BME280;5087;42.662;23.466;2022-07-10T08:24:57;95102.22;;;23.09;100.00
10097;BME280;5087;42.662;23.466;2022-07-10T08:27:26;95105.22;;;23.40;100.00
10097;BME280;5087;42.662;23.466;2022-07-10T08:29:54;95113.72;;;23.07;99.42
10097;BME280;5087;42.662;23.466;2022-07-10T08:32:21;95117.09;;;23.41;100.00
10097;BME280;5087;42.662;23.466;2022-07-10T08:34:48;95103.41;;;23.68;96.27
10097;BME280;5087;42.662;23.466;2022-07-10T08:37:16;95107.66;;;23.80;95.00
10097;BME280;5087;42.662;23.466;2022-07-10T08:39:45;95108.75;;;22.70;93.75
10097;BME280;5087;42.662;23.466;2022-07-10T08:42:12;95097.03;;;22.48;90.06
10097;BME280;5087;42.662;23.466;2022-07-10T08:44:43;95102.94;;;22.32;100.00
10097;BME280;5087;42.662;23.466;2022-07-10T08:47:11;95106.03;;;23.41;97.26
10097;BME280;5087;42.662;23.466;2022-07-10T08:49:43;95098.91;;;23.39;98.70
10097;BME280;5087;42.662;23.466;2022-07-10T08:52:20;95113.47;;;23.93;98.54
10097;BME280;5087;42.662;23.466;2022-07-10T08:54:50;95095.53;;;24.08;94.73
10097;BME280;5087;42.662;23.466;2022-07-10T08:57:18;95101.22;;;23.45;95.17
10097;BME280;5087;42.662;23.466;2022-07-10T08:59:47;95099.69;;;23.36;93.62
10097;BME280;5087;42.662;23.466;2022-07-10T09:02:14;95080.22;;;23.96;93.38
10097;BME280;5087;42.662;23.466;2022-07-10T09:04:41;95093.47;;;24.20;96.57
10097;BME280;5087;42.662;23.466;2022-07-10T09:07:09;95099.47;;;23.65;96.45
10097;BME280;5087;42.662;23.466;2022-07-10T09:09:51;95093.91;;;24.49;89.39
10097;BME280;5087;42.662;23.466;2022-07-10T09:12:19;95092.81;;;24.05;93.26
10097;BME280;5087;42.662;23.466;2022-07-10T09:14:48;95085.75;;;23.96;91.52
10097;BME280;5087;42.662;23.466;2022-07-10T09:17:16;95082.63;;;23.94;91.71
10097;BME280;5087;42.662;23.466;2022-07-10T09:19:43;95075.91;;;23.88;91.19
10097;BME280;5087;42.662;23.466;2022-07-10T09:22:12;95089.22;;;24.08;89.18
10097;BME280;5087;42.662;23.466;2022-07-10T09:24:41;95090.19;;;24.28;88.80
10097;BME280;5087;42.662;23.466;2022-07-10T09:27:13;95097.97;;;24.41;86.81
10097;BME280;5087;42.662;23.466;2022-07-10T09:29:46;95089.72;;;23.95;86.59
10097;BME280;5087;42.662;23.466;2022-07-10T09:32:16;95089.59;;;24.06;90.91
10097;BME280;5087;42.662;23.466;2022-07-10T09:34:45;95082.81;;;25.11;89.21
10097;BME280;5087;42.662;23.466;2022-07-10T09:39:56;95080.47;;;26.32;77.23
10097;BME280;5087;42.662;23.466;2022-07-10T09:42:26;95075.78;;;25.81;83.94
10097;BME280;5087;42.662;23.466;2022-07-10T09:44:53;95072.38;;;24.26;86.79
10097;BME280;5087;42.662;23.466;2022-07-10T09:47:43;95066.09;;;24.53;85.93
10097;BME280;5087;42.662;23.466;2022-07-10T09:50:20;95075.63;;;24.55;83.62
10097;BME280;5087;42.662;23.466;2022-07-10T09:52:50;95068.59;;;25.33;78.08
10097;BME280;5087;42.662;23.466;2022-07-10T09:55:19;95063.25;;;25.46;79.20
10097;BME280;5087;42.662;23.466;2022-07-10T09:57:54;95060.13;;;25.16;83.35
10097;BME280;5087;42.662;23.466;2022-07-10T10:00:37;95061.50;;;25.32;78.90
10097;BME280;5087;42.662;23.466;2022-07-10T10:03:08;95060.84;;;26.39;75.32
10097;BME280;5087;42.662;23.466;2022-07-10T10:05:39;95052.63;;;25.13;75.81
10097;BME280;5087;42.662;23.466;2022-07-10T10:08:15;95066.47;;;25.44;80.24
10097;BME280;5087;42.662;23.466;2022-07-10T10:10:45;95060.06;;;24.30;83.79
10097;BME280;5087;42.662;23.466;2022-07-10T10:13:16;95061.34;;;24.22;83.43
10097;BME280;5087;42.662;23.466;2022-07-10T10:15:45;95058.69;;;24.11;86.48
10097;BME280;5087;42.662;23.466;2022-07-10T10:18:17;95045.44;;;24.57;84.08
10097;BME280;5087;42.662;23.466;2022-07-10T10:20:46;95044.88;;;24.73;77.70
10097;BME280;5087;42.662;23.466;2022-07-10T10:23:14;95060.75;;;25.00;79.05
10097;BME280;5087;42.662;23.466;2022-07-10T10:25:43;95057.31;;;25.71;76.75
10097;BME280;5087;42.662;23.466;2022-07-10T10:28:13;95046.91;;;25.51;75.77
10097;BME280;5087;42.662;23.466;2022-07-10T10:30:43;95038.50;;;25.27;80.88
10097;BME280;5087;42.662;23.466;2022-07-10T10:33:43;95044.16;;;25.95;77.28
10097;BME280;5087;42.662;23.466;2022-07-10T10:36:14;95038.59;;;23.05;84.22
10097;BME280;5087;42.662;23.466;2022-07-10T10:39:00;95027.50;;;23.05;87.22
10097;BME280;5087;42.662;23.466;2022-07-10T10:41:29;95023.19;;;23.95;84.56
10097;BME280;5087;42.662;23.466;2022-07-10T10:44:28;95050.19;;;22.86;88.98
10097;BME280;5087;42.662;23.466;2022-07-10T10:47:05;95033.28;;;22.69;93.81
10097;BME280;5087;42.662;23.466;2022-07-10T10:49:56;95051.16;;;23.21;96.42
10097;BME280;5087;42.662;23.466;2022-07-10T10:52:25;95030.50;;;23.75;92.07
10097;BME280;5087;42.662;23.466;2022-07-10T10:55:04;95029.50;;;23.99;84.41
10097;BME280;5087;42.662;23.466;2022-07-10T10:57:37;95038.28;;;23.91;83.06
10097;BME280;5087;42.662;23.466;2022-07-10T11:00:12;95031.34;;;22.59;91.34
10097;BME280;5087;42.662;23.466;2022-07-10T11:02:42;95018.84;;;22.29;94.86
10097;BME280;5087;42.662;23.466;2022-07-10T11:05:46;95037.53;;;22.85;98.11
10097;BME280;5087;42.662;23.466;2022-07-10T11:08:14;95027.91;;;22.33;96.66
10097;BME280;5087;42.662;23.466;2022-07-10T11:11:01;95035.38;;;22.43;97.86
10097;BME280;5087;42.662;23.466;2022-07-10T11:13:28;95038.59;;;22.27;95.11
10097;BME280;5087;42.662;23.466;2022-07-10T11:15:56;95036.34;;;22.86;87.43
10097;BME280;5087;42.662;23.466;2022-07-10T11:18:24;95035.78;;;23.09;85.39
10097;BME280;5087;42.662;23.466;2022-07-10T11:20:55;95037.22;;;23.32;86.83
10097;BME280;5087;42.662;23.466;2022-07-10T11:23:48;95028.06;;;22.86;88.23
10097;BME280;5087;42.662;23.466;2022-07-10T11:26:21;95025.09;;;23.60;88.48
10097;BME280;5087;42.662;23.466;2022-07-10T11:28:51;95029.69;;;22.80;91.47
10097;BME280;5087;42.662;23.466;2022-07-10T11:31:19;95026.41;;;22.96;95.60
10097;BME280;5087;42.662;23.466;2022-07-10T11:33:48;95036.13;;;22.58;90.92
10097;BME280;5087;42.662;23.466;2022-07-10T11:36:19;95024.03;;;22.98;91.08
10097;BME280;5087;42.662;23.466;2022-07-10T11:38:47;95031.16;;;22.91;92.06
10097;BME280;5087;42.662;23.466;2022-07-10T11:41:16;95011.63;;;23.17;84.93
10097;BME280;5087;42.662;23.466;2022-07-10T11:43:50;95026.50;;;23.37;83.03
10097;BME280;5087;42.662;23.466;2022-07-10T11:46:18;95027.16;;;22.96;83.88
10097;BME280;5087;42.662;23.466;2022-07-10T11:48:47;95037.81;;;22.23;80.08
10097;BME280;5087;42.662;23.466;2022-07-10T11:51:18;95004.69;;;22.12;81.38
10097;BME280;5087;42.662;23.466;2022-07-10T11:53:56;95030.81;;;21.86;82.26
10097;BME280;5087;42.662;23.466;2022-07-10T11:56:25;95035.09;;;22.05;84.57
10097;BME280;5087;42.662;23.466;2022-07-10T11:59:00;95044.94;;;22.17;84.72
10097;BME280;5087;42.662;23.466;2022-07-10T12:01:28;95038.59;;;22.31;84.85
10097;BME280;5087;42.662;23.466;2022-07-10T12:04:00;95016.63;;;21.77;83.39
10097;BME280;5087;42.662;23.466;2022-07-10T12:06:30;95024.44;;;22.07;84.52
10097;BME280;5087;42.662;23.466;2022-07-10T12:09:02;95033.13;;;22.13;87.27
10097;BME280;5087;42.662;23.466;2022-07-10T12:11:29;95027.59;;;22.17;83.52
10097;BME280;5087;42.662;23.466;2022-07-10T12:14:10;95032.59;;;22.51;82.84
10097;BME280;5087;42.662;23.466;2022-07-10T12:16:39;95029.19;;;22.92;83.43
10097;BME280;5087;42.662;23.466;2022-07-10T12:19:09;94992.13;;;22.79;77.09
10097;BME280;5087;42.662;23.466;2022-07-10T12:21:39;95028.63;;;23.15;78.90
10097;BME280;5087;42.662;23.466;2022-07-10T12:24:07;95030.44;;;22.84;79.15
10097;BME280;5087;42.662;23.466;2022-07-10T12:26:37;95030.31;;;22.98;79.01
10097;BME280;5087;42.662;23.466;2022-07-10T12:29:05;95016.97;;;22.89;80.26
10097;BME280;5087;42.662;23.466;2022-07-10T12:31:33;95024.50;;;22.82;84.70
10097;BME280;5087;42.662;23.466;2022-07-10T12:34:02;95003.06;;;22.26;82.33
10097;BME280;5087;42.662;23.466;2022-07-10T12:36:45;95024.72;;;22.38;82.41
10097;BME280;5087;42.662;23.466;2022-07-10T12:39:13;95010.66;;;22.82;81.00
10097;BME280;5087;42.662;23.466;2022-07-10T12:41:58;95020.53;;;23.39;78.65
10097;BME280;5087;42.662;23.466;2022-07-10T12:44:33;95006.47;;;22.55;81.75
10097;BME280;5087;42.662;23.466;2022-07-10T12:47:01;94994.69;;;22.48;86.02
10097;BME280;5087;42.662;23.466;2022-07-10T12:49:29;95031.81;;;22.47;88.50
10097;BME280;5087;42.662;23.466;2022-07-10T12:51:57;95029.94;;;22.22;88.42
10097;BME280;5087;42.662;23.466;2022-07-10T12:54:32;95018.16;;;22.07;85.12
10097;BME280;5087;42.662;23.466;2022-07-10T12:57:00;95022.88;;;22.03;86.63
10097;BME280;5087;42.662;23.466;2022-07-10T12:59:28;95028.34;;;22.21;87.16
10097;BME280;5087;42.662;23.466;2022-07-10T13:01:55;95026.25;;;22.54;86.50
10097;BME280;5087;42.662;23.466;2022-07-10T13:04:24;95014.41;;;22.50;86.15
10097;BME280;5087;42.662;23.466;2022-07-10T13:06:53;95022.09;;;22.06;95.30